Time,TemperatureF,DewpointF,PressureIn,WindDirection,WindDirectionDegrees,WindSpeedMPH,WindSpeedGustMPH,Humidity,HourlyPrecipIn,Conditions,Clouds,dailyrainin,SolarRadiationWatts/m^2,SoftwareType,DateUTC
2013-08-01 00:01:00,65.0,62.9,30.07,SSE,159,0.0,0.0,93,0.00,,,0.00,0,Wunderground v.1.15,2013-08-01 04:01:00,
2013-08-01 00:03:00,64.9,62.8,30.07,SSE,159,0.0,0.0,93,0.00,,,0.00,0,Wunderground v.1.15,2013-08-01 04:03:00,
2013-08-01 00:06:00,64.8,63.0,30.07,SSE,159,0.0,0.0,94,0.00,,,0.00,0,Wunderground v.1.15,2013-08-01 04:06:00,
2013-08-01 00:09:00,64.7,62.9,30.07,SSE,159,0.0,0.0,94,0.00,,,0.00,0,Wunderground v.1.15,2013-08-01 04:09:00,
2013-08-01 00:15:00,64.8,63.0,30.07,SSE,159,0.0,0.0,94,0.00,,,0.00,0,Wunderground v.1.15,2013-08-01 04:15:00,
2013-08-01 00:20:00,64.9,63.1,30.07,SSE,159,0.0,0.0,94,0.00,,,0.00,0,Wunderground v.1.15,2013-08-01 04:20:00,
2013-08-01 00:25:00,64.8,63.0,30.07,SSE,159,0.0,0.0,94,0.00,,,0.00,0,Wunderground v.1.15,2013-08-01 04:25:00,
2013-08-01 00:30:00,64.8,63.3,30.07,SSE,159,0.0,0.0,95,0.00,,,0.00,0,Wunderground v.1.15,2013-08-01 04:30:00,
2013-08-01 00:36:00,64.9,63.1,30.07,SSE,159,0.0,0.0,94,0.00,,,0.00,0,Wunderground v.1.15,2013-08-01 04:36:00,
2013-08-01 00:42:00,65.0,63.2,30.07,SSE,159,0.0,0.0,94,0.00,,,0.00,0,Wunderground v.1.15,2013-08-01 04:42:00,
2013-08-01 00:48:00,64.9,63.1,30.06,SSE,159,0.0,0.0,94,0.00,,,0.00,0,Wunderground v.1.15,2013-08-01 04:48:00,
2013-08-01 00:53:00,65.0,63.5,30.06,SSE,159,0.0,0.0,95,0.00,,,0.00,0,Wunderground v.1.15,2013-08-01 04:53:00,
2013-08-01 00:58:00,65.0,63.2,30.06,SSE,159,0.0,0.0,94,0.00,,,0.00,0,Wunderground v.1.15,2013-08-01 04:58:00,
2013-08-01 01:04:00,64.9,63.1,30.06,SSE,159,0.0,0.0,94,0.00,,,0.00,0,Wunderground v.1.15,2013-08-01 05:04:00,
2013-08-01 01:10:00,64.9,63.1,30.06,SSE,159,0.0,0.0,94,0.00,,,0.00,0,Wunderground v.1.15,2013-08-01 05:10:00,
2013-08-01 01:15:00,64.8,63.0,30.06,SSE,159,0.0,0.0,94,0.00,,,0.00,0,Wunderground v.1.15,2013-08-01 05:15:00,
2013-08-01 01:21:00,64.5,62.7,30.06,SSE,159,0.0,0.0,94,0.00,,,0.00,0,Wunderground v.1.15,2013-08-01 05:21:00,
2013-08-01 01:26:00,64.5,63.0,30.06,SSE,159,0.0,0.0,95,0.00,,,0.00,0,Wunderground v.1.15,2013-08-01 05:26:00,
2013-08-01 01:32:00,64.5,63.0,30.06,SSE,159,0.0,0.0,95,0.00,,,0.00,0,Wunderground v.1.15,2013-08-01 05:32:00,
2013-08-01 01:38:00,64.3,62.8,30.06,SSE,159,0.0,0.0,95,0.00,,,0.00,0,Wunderground v.1.15,2013-08-01 05:38:00,
2013-08-01 01:43:00,64.2,62.7,30.06,SSE,159,0.0,0.0,95,0.00,,,0.00,0,Wunderground v.1.15,2013-08-01 05:43:00,
2013-08-01 01:49:00,64.1,62.6,30.06,SSE,159,0.0,0.0,95,0.00,,,0.00,0,Wunderground v.1.15,2013-08-01 05:49:00,
2013-08-01 01:54:00,63.8,62.3,30.05,SSE,159,0.0,0.0,95,0.00,,,0.00,0,Wunderground v.1.15,2013-08-01 05:54:00,
2013-08-01 02:00:00,63.6,62.4,30.05,SSE,159,0.0,0.0,96,0.00,,,0.00,0,Wunderground v.1.15,2013-08-01 06:00:00,
2013-08-01 02:05:00,63.4,62.2,30.05,SSE,159,0.0,0.0,96,0.00,,,0.00,0,Wunderground v.1.15,2013-08-01 06:05:00,
2013-08-01 02:10:00,63.3,62.1,30.05,SSE,159,0.0,0.0,96,0.00,,,0.00,0,Wunderground v.1.15,2013-08-01 06:10:00,
2013-08-01 02:15:00,63.2,62.0,30.05,SSE,159,0.0,0.0,96,0.00,,,0.00,0,Wunderground v.1.15,2013-08-01 06:15:00,
2013-08-01 02:20:00,63.2,62.0,30.05,SSE,159,0.0,0.0,96,0.00,,,0.00,0,Wunderground v.1.15,2013-08-01 06:20:00,
2013-08-01 02:26:00,63.3,62.1,30.04,SSE,159,0.0,0.0,96,0.00,,,0.00,0,Wunderground v.1.15,2013-08-01 06:26:00,
2013-08-01 02:31:00,63.3,62.1,30.04,SSE,159,0.0,0.0,96,0.00,,,0.00,0,Wunderground v.1.15,2013-08-01 06:31:00,
2013-08-01 02:36:00,63.2,62.0,30.04,SSE,159,0.0,0.0,96,0.00,,,0.00,0,Wunderground v.1.15,2013-08-01 06:36:00,
2013-08-01 02:42:00,63.1,61.9,30.04,SSE,159,0.0,0.0,96,0.00,,,0.00,0,Wunderground v.1.15,2013-08-01 06:42:00,
2013-08-01 02:48:00,63.0,61.8,30.04,SSE,159,0.0,0.0,96,0.00,,,0.00,0,Wunderground v.1.15,2013-08-01 06:48:00,
2013-08-01 02:53:00,62.9,61.7,30.04,SSE,159,0.0,0.0,96,0.00,,,0.00,0,Wunderground v.1.15,2013-08-01 06:53:00,
2013-08-01 02:58:00,63.0,61.8,30.04,SSE,159,0.0,0.0,96,0.00,,,0.00,0,Wunderground v.1.15,2013-08-01 06:58:00,
2013-08-01 03:05:00,63.1,62.2,30.04,SSE,159,0.0,0.0,97,0.00,,,0.00,0,Wunderground v.1.15,2013-08-01 07:05:00,
2013-08-01 03:11:00,63.4,62.5,30.04,SSE,159,0.0,0.0,97,0.00,,,0.00,0,Wunderground v.1.15,2013-08-01 07:11:00,
2013-08-01 03:16:00,63.5,62.6,30.04,SSE,159,0.0,0.0,97,0.00,,,0.00,0,Wunderground v.1.15,2013-08-01 07:16:00,
2013-08-01 03:21:00,63.8,62.9,30.03,SSE,159,0.0,0.0,97,0.00,,,0.00,0,Wunderground v.1.15,2013-08-01 07:21:00,
2013-08-01 03:27:00,63.8,62.9,30.03,SSE,159,0.0,0.0,97,0.00,,,0.00,0,Wunderground v.1.15,2013-08-01 07:27:00,
2013-08-01 03:33:00,63.7,62.8,30.03,SSE,159,0.0,0.0,97,0.00,,,0.00,0,Wunderground v.1.15,2013-08-01 07:33:00,
2013-08-01 03:38:00,63.8,62.9,30.03,SSE,159,0.0,0.0,97,0.00,,,0.00,0,Wunderground v.1.15,2013-08-01 07:38:00,
2013-08-01 03:44:00,63.9,63.0,30.03,SSE,159,0.0,0.0,97,0.00,,,0.00,0,Wunderground v.1.15,2013-08-01 07:44:00,
2013-08-01 03:50:00,64.0,63.1,30.03,SSE,159,0.0,0.0,97,0.00,,,0.00,0,Wunderground v.1.15,2013-08-01 07:50:00,
2013-08-01 03:55:00,63.9,63.0,30.03,SSE,159,0.0,0.0,97,0.00,,,0.00,0,Wunderground v.1.15,2013-08-01 07:55:00,
2013-08-01 04:00:00,63.9,63.0,30.03,SSE,159,0.0,0.0,97,0.00,,,0.00,0,Wunderground v.1.15,2013-08-01 08:00:00,
2013-08-01 04:06:00,63.9,63.0,30.03,SSE,159,0.0,0.0,97,0.00,,,0.00,0,Wunderground v.1.15,2013-08-01 08:06:00,
2013-08-01 04:11:00,63.8,62.6,30.03,SSE,159,0.0,0.0,96,0.00,,,0.00,0,Wunderground v.1.15,2013-08-01 08:11:00,
2013-08-01 04:16:00,63.6,62.4,30.03,SSE,159,0.0,0.0,96,0.00,,,0.00,0,Wunderground v.1.15,2013-08-01 08:16:00,
2013-08-01 04:23:00,63.3,62.1,30.03,SSE,159,0.0,0.0,96,0.00,,,0.00,0,Wunderground v.1.15,2013-08-01 08:23:00,
2013-08-01 04:28:00,63.2,62.0,30.03,SSE,159,0.0,0.0,96,0.00,,,0.00,0,Wunderground v.1.15,2013-08-01 08:28:00,
2013-08-01 04:34:00,63.1,62.2,30.03,SSE,159,0.0,0.0,97,0.00,,,0.00,0,Wunderground v.1.15,2013-08-01 08:34:00,
2013-08-01 04:43:00,62.8,61.6,30.03,SSE,159,0.0,0.0,96,0.00,,,0.00,0,Wunderground v.1.15,2013-08-01 08:43:00,
2013-08-01 04:48:00,62.9,62.0,30.03,SSE,159,0.0,0.0,97,0.00,,,0.00,0,Wunderground v.1.15,2013-08-01 08:48:00,
2013-08-01 04:54:00,62.8,61.9,30.03,SSE,159,0.0,0.0,97,0.00,,,0.00,0,Wunderground v.1.15,2013-08-01 08:54:00,
2013-08-01 05:00:00,62.7,61.8,30.02,SSE,159,0.0,0.0,97,0.00,,,0.00,0,Wunderground v.1.15,2013-08-01 09:00:00,
2013-08-01 05:05:00,62.6,61.7,30.03,SSE,159,0.0,0.0,97,0.00,,,0.00,0,Wunderground v.1.15,2013-08-01 09:05:00,
2013-08-01 05:11:00,62.5,61.6,30.02,SSE,159,0.0,0.0,97,0.00,,,0.00,0,Wunderground v.1.15,2013-08-01 09:11:00,
2013-08-01 05:16:00,62.5,61.6,30.02,SSE,159,0.0,0.0,97,0.00,,,0.00,0,Wunderground v.1.15,2013-08-01 09:16:00,
2013-08-01 05:21:00,62.4,61.5,30.02,SSE,159,0.0,0.0,97,0.00,,,0.00,0,Wunderground v.1.15,2013-08-01 09:21:00,
2013-08-01 05:27:00,62.3,61.4,30.02,SSE,159,0.0,0.0,97,0.00,,,0.00,0,Wunderground v.1.15,2013-08-01 09:27:00,
2013-08-01 05:34:00,62.4,61.5,30.02,SSE,159,0.0,0.0,97,0.00,,,0.00,0,Wunderground v.1.15,2013-08-01 09:34:00,
2013-08-01 05:40:00,62.4,61.5,30.02,SSE,159,0.0,0.0,97,0.00,,,0.00,0,Wunderground v.1.15,2013-08-01 09:40:00,
2013-08-01 05:45:00,62.3,61.4,30.02,SSE,159,0.0,0.0,97,0.00,,,0.00,0,Wunderground v.1.15,2013-08-01 09:45:00,
2013-08-01 05:51:00,62.2,61.3,30.02,SSE,159,0.0,0.0,97,0.00,,,0.00,5,Wunderground v.1.15,2013-08-01 09:51:00,
2013-08-01 05:58:00,62.3,61.4,30.02,SSE,159,0.0,0.0,97,0.00,,,0.00,12,Wunderground v.1.15,2013-08-01 09:58:00,
2013-08-01 06:03:00,62.2,61.3,30.02,SSE,159,0.0,0.0,97,0.00,,,0.00,14,Wunderground v.1.15,2013-08-01 10:03:00,
2013-08-01 06:08:00,62.1,61.2,30.02,SSE,159,0.0,0.0,97,0.00,,,0.00,14,Wunderground v.1.15,2013-08-01 10:08:00,
2013-08-01 06:13:00,62.1,61.2,30.02,SSE,159,0.0,0.0,97,0.00,,,0.00,16,Wunderground v.1.15,2013-08-01 10:13:00,
2013-08-01 06:18:00,62.0,61.4,30.02,SSE,159,0.0,0.0,98,0.00,,,0.00,19,Wunderground v.1.15,2013-08-01 10:18:00,
2013-08-01 06:25:00,62.2,61.6,30.02,SSE,159,0.0,0.0,98,0.00,,,0.00,26,Wunderground v.1.15,2013-08-01 10:25:00,
2013-08-01 06:32:00,62.5,61.9,30.03,SSE,159,0.0,0.0,98,0.00,,,0.00,39,Wunderground v.1.15,2013-08-01 10:32:00,
2013-08-01 06:38:00,62.8,62.2,30.03,SSE,159,0.0,0.0,98,0.00,,,0.00,35,Wunderground v.1.15,2013-08-01 10:38:00,
2013-08-01 06:43:00,63.0,62.4,30.03,SSE,159,0.0,0.0,98,0.00,,,0.00,28,Wunderground v.1.15,2013-08-01 10:43:00,
2013-08-01 06:53:00,63.2,62.6,30.03,SSE,159,0.0,0.0,98,0.00,,,0.00,26,Wunderground v.1.15,2013-08-01 10:53:00,
2013-08-01 06:58:00,63.3,62.7,30.03,SSE,159,0.0,0.0,98,0.00,,,0.00,21,Wunderground v.1.15,2013-08-01 10:58:00,
2013-08-01 07:04:00,63.5,62.9,30.03,SSE,159,0.0,0.0,98,0.00,,,0.00,19,Wunderground v.1.15,2013-08-01 11:04:00,
2013-08-01 07:09:00,63.9,63.3,30.04,SSE,159,0.0,0.0,98,0.00,,,0.00,19,Wunderground v.1.15,2013-08-01 11:09:00,
2013-08-01 07:14:00,64.0,63.4,30.04,SSE,159,0.0,0.0,98,0.00,,,0.00,21,Wunderground v.1.15,2013-08-01 11:14:00,
2013-08-01 07:22:00,64.1,63.5,30.04,SSE,159,0.0,0.0,98,0.00,,,0.00,19,Wunderground v.1.15,2013-08-01 11:22:00,
2013-08-01 07:28:00,64.4,63.8,30.04,SSE,159,0.0,0.0,98,0.00,,,0.00,23,Wunderground v.1.15,2013-08-01 11:28:00,
2013-08-01 07:34:00,64.7,64.1,30.03,SSE,159,0.0,0.0,98,0.00,,,0.00,35,Wunderground v.1.15,2013-08-01 11:34:00,
2013-08-01 07:40:00,65.2,64.6,30.03,SSE,159,0.0,0.0,98,0.00,,,0.00,39,Wunderground v.1.15,2013-08-01 11:40:00,
2013-08-01 07:45:00,65.7,64.8,30.03,SSE,159,0.0,0.0,97,0.00,,,0.00,40,Wunderground v.1.15,2013-08-01 11:45:00,
2013-08-01 07:51:00,66.7,66.1,30.03,SSE,159,0.0,0.0,98,0.00,,,0.00,62,Wunderground v.1.15,2013-08-01 11:51:00,
2013-08-01 07:56:00,67.5,66.6,30.03,SSE,159,0.0,0.0,97,0.00,,,0.00,58,Wunderground v.1.15,2013-08-01 11:56:00,
2013-08-01 08:03:00,68.5,67.3,30.03,SSE,159,0.0,0.0,96,0.00,,,0.00,79,Wunderground v.1.15,2013-08-01 12:03:00,
2013-08-01 08:09:00,69.4,67.9,30.03,SE,139,0.0,0.0,95,0.00,,,0.00,120,Wunderground v.1.15,2013-08-01 12:09:00,
2013-08-01 08:14:00,70.3,68.2,30.03,SE,127,1.0,2.0,93,0.00,,,0.00,148,Wunderground v.1.15,2013-08-01 12:14:00,
2013-08-01 08:20:00,71.2,68.1,30.03,ESE,115,1.0,3.0,90,0.00,,,0.00,176,Wunderground v.1.15,2013-08-01 12:20:00,
2013-08-01 08:26:00,71.8,68.4,30.03,SE,143,1.0,3.0,89,0.00,,,0.00,137,Wunderground v.1.15,2013-08-01 12:26:00,
2013-08-01 08:32:00,72.0,67.6,30.03,South,180,0.0,1.0,86,0.00,,,0.00,153,Wunderground v.1.15,2013-08-01 12:32:00,
2013-08-01 08:38:00,72.1,67.7,30.03,SSE,162,0.0,1.0,86,0.00,,,0.00,144,Wunderground v.1.15,2013-08-01 12:38:00,
2013-08-01 08:44:00,72.3,68.2,30.03,SSE,162,0.0,0.0,87,0.00,,,0.00,144,Wunderground v.1.15,2013-08-01 12:44:00,
2013-08-01 08:52:00,72.4,66.6,30.02,SSE,158,0.0,1.0,82,0.00,,,0.00,146,Wunderground v.1.15,2013-08-01 12:52:00,
2013-08-01 08:58:00,72.5,67.4,30.02,SSE,157,0.0,1.0,84,0.00,,,0.00,142,Wunderground v.1.15,2013-08-01 12:58:00,
2013-08-01 09:03:00,72.7,67.6,30.02,SE,142,0.0,0.0,84,0.00,,,0.00,149,Wunderground v.1.15,2013-08-01 13:03:00,
2013-08-01 09:09:00,73.2,68.1,30.02,SSE,161,0.0,1.0,84,0.00,,,0.00,153,Wunderground v.1.15,2013-08-01 13:09:00,
2013-08-01 09:14:00,73.5,67.3,30.02,ESE,123,1.0,2.0,81,0.00,,,0.00,149,Wunderground v.1.15,2013-08-01 13:14:00,
2013-08-01 09:19:00,73.9,63.9,30.02,SSE,167,1.0,2.0,71,0.00,,,0.00,179,Wunderground v.1.15,2013-08-01 13:19:00,
2013-08-01 09:24:00,74.1,65.3,30.01,SE,131,1.0,2.0,74,0.00,,,0.00,155,Wunderground v.1.15,2013-08-01 13:24:00,
2013-08-01 09:33:00,73.9,65.1,30.01,SSE,152,1.0,2.0,74,0.00,,,0.00,144,Wunderground v.1.15,2013-08-01 13:33:00,
2013-08-01 09:40:00,74.2,65.0,30.01,SE,140,1.0,1.0,73,0.00,,,0.00,111,Wunderground v.1.15,2013-08-01 13:40:00,
2013-08-01 09:46:00,74.5,64.5,30.01,South,176,1.0,3.0,71,0.00,,,0.00,62,Wunderground v.1.15,2013-08-01 13:46:00,
2013-08-01 09:51:00,74.6,64.6,30.01,SSE,157,1.0,1.0,71,0.00,,,0.00,63,Wunderground v.1.15,2013-08-01 13:51:00,
2013-08-01 09:58:00,75.2,65.1,30.01,SSE,151,1.0,1.0,71,0.00,,,0.00,67,Wunderground v.1.15,2013-08-01 13:58:00,
2013-08-01 10:03:00,75.3,64.8,30.00,WNW,302,0.0,1.0,70,0.00,,,0.00,118,Wunderground v.1.15,2013-08-01 14:03:00,
2013-08-01 10:09:00,75.4,64.1,30.00,SSW,193,1.0,1.0,68,0.00,,,0.00,76,Wunderground v.1.15,2013-08-01 14:09:00,
2013-08-01 10:14:00,75.6,63.4,30.00,SSE,152,1.0,2.0,66,0.00,,,0.00,72,Wunderground v.1.15,2013-08-01 14:14:00,
2013-08-01 10:22:00,76.0,63.4,30.00,ESE,111,1.0,2.0,65,0.00,,,0.00,747,Wunderground v.1.15,2013-08-01 14:22:00,
2013-08-01 10:27:00,76.9,64.7,30.00,SSE,150,1.0,3.0,66,0.00,,,0.00,308,Wunderground v.1.15,2013-08-01 14:27:00,
2013-08-01 10:33:00,76.6,64.0,30.00,SE,132,1.0,2.0,65,0.00,,,0.00,812,Wunderground v.1.15,2013-08-01 14:33:00,
2013-08-01 10:38:00,76.7,63.6,30.00,SSE,164,1.0,3.0,64,0.00,,,0.00,824,Wunderground v.1.15,2013-08-01 14:38:00,
2013-08-01 10:45:00,77.3,64.2,30.00,SSE,148,1.0,2.0,64,0.00,,,0.00,840,Wunderground v.1.15,2013-08-01 14:45:00,
2013-08-01 10:51:00,79.5,66.7,30.00,SSW,192,0.0,1.0,65,0.00,,,0.00,856,Wunderground v.1.15,2013-08-01 14:51:00,
2013-08-01 10:58:00,78.8,65.6,29.99,SE,135,1.0,5.0,64,0.00,,,0.00,867,Wunderground v.1.15,2013-08-01 14:58:00,
2013-08-01 11:03:00,79.6,65.9,29.99,WNW,296,1.0,2.0,63,0.00,,,0.00,879,Wunderground v.1.15,2013-08-01 15:03:00,
2013-08-01 11:08:00,78.7,64.6,29.99,SE,144,1.0,2.0,62,0.00,,,0.00,896,Wunderground v.1.15,2013-08-01 15:08:00,
2013-08-01 11:14:00,79.3,65.6,29.99,NW,306,1.0,3.0,63,0.00,,,0.00,241,Wunderground v.1.15,2013-08-01 15:14:00,
2013-08-01 11:20:00,80.1,65.4,29.99,SW,236,0.0,0.0,61,0.00,,,0.00,949,Wunderground v.1.15,2013-08-01 15:20:00,
2013-08-01 11:25:00,78.1,63.6,29.99,SE,127,1.0,2.0,61,0.00,,,0.00,95,Wunderground v.1.15,2013-08-01 15:25:00,
2013-08-01 11:30:00,77.2,64.1,29.99,SSE,164,1.0,1.0,64,0.00,,,0.00,930,Wunderground v.1.15,2013-08-01 15:30:00,
2013-08-01 11:38:00,79.4,63.3,29.99,SE,141,1.0,5.0,58,0.00,,,0.00,949,Wunderground v.1.15,2013-08-01 15:38:00,
2013-08-01 11:44:00,78.2,63.6,29.98,South,184,2.0,3.0,61,0.00,,,0.00,937,Wunderground v.1.15,2013-08-01 15:44:00,
2013-08-01 11:51:00,80.2,63.1,29.98,SSE,155,2.0,2.0,56,0.00,,,0.00,127,Wunderground v.1.15,2013-08-01 15:51:00,
2013-08-01 11:57:00,79.6,65.9,29.98,SSE,149,1.0,2.0,63,0.00,,,0.00,940,Wunderground v.1.15,2013-08-01 15:57:00,
2013-08-01 12:03:00,79.7,64.6,29.98,SSW,198,1.0,4.0,60,0.00,,,0.00,83,Wunderground v.1.15,2013-08-01 16:03:00,
2013-08-01 12:08:00,78.8,64.2,29.98,SE,142,2.0,4.0,61,0.00,,,0.00,134,Wunderground v.1.15,2013-08-01 16:08:00,
2013-08-01 12:13:00,79.6,65.9,29.98,SE,140,1.0,2.0,63,0.00,,,0.00,113,Wunderground v.1.15,2013-08-01 16:13:00,
2013-08-01 12:18:00,79.4,66.6,29.98,SSE,167,1.0,2.0,65,0.00,,,0.00,128,Wunderground v.1.15,2013-08-01 16:18:00,
2013-08-01 12:23:00,79.4,65.7,29.98,ENE,76,1.0,1.0,63,0.00,,,0.00,104,Wunderground v.1.15,2013-08-01 16:23:00,
2013-08-01 12:29:00,80.0,66.7,29.98,SW,236,1.0,1.0,64,0.00,,,0.00,100,Wunderground v.1.15,2013-08-01 16:29:00,
2013-08-01 12:35:00,80.4,65.7,29.98,SSW,194,1.0,3.0,61,0.00,,,0.00,125,Wunderground v.1.15,2013-08-01 16:35:00,
2013-08-01 12:41:00,79.7,66.4,29.97,NW,313,1.0,2.0,64,0.00,,,0.00,174,Wunderground v.1.15,2013-08-01 16:41:00,
2013-08-01 12:46:00,79.6,64.5,29.97,SE,133,1.0,2.0,60,0.00,,,0.00,294,Wunderground v.1.15,2013-08-01 16:46:00,
2013-08-01 12:51:00,79.1,64.5,29.97,SSW,196,1.0,1.0,61,0.00,,,0.00,83,Wunderground v.1.15,2013-08-01 16:51:00,
2013-08-01 13:00:00,79.3,66.1,29.97,South,189,1.0,4.0,64,0.00,,,0.00,171,Wunderground v.1.15,2013-08-01 17:00:00,
2013-08-01 13:07:00,79.3,64.7,29.96,WNW,284,2.0,4.0,61,0.00,,,0.00,172,Wunderground v.1.15,2013-08-01 17:07:00,
2013-08-01 13:12:00,79.3,66.1,29.96,South,180,2.0,2.0,64,0.00,,,0.00,104,Wunderground v.1.15,2013-08-01 17:12:00,
2013-08-01 13:19:00,79.3,66.1,29.97,South,189,1.0,3.0,64,0.00,,,0.00,141,Wunderground v.1.15,2013-08-01 17:19:00,
2013-08-01 13:24:00,78.9,65.7,29.97,South,170,2.0,2.0,64,0.00,,,0.00,132,Wunderground v.1.15,2013-08-01 17:24:00,
2013-08-01 13:29:00,79.1,65.4,29.97,ESE,117,2.0,3.0,63,0.00,,,0.00,102,Wunderground v.1.15,2013-08-01 17:29:00,
2013-08-01 13:35:00,79.3,65.1,29.97,South,188,2.0,2.0,62,0.00,,,0.00,86,Wunderground v.1.15,2013-08-01 17:35:00,
2013-08-01 13:41:00,79.0,65.3,29.96,SSW,196,2.0,2.0,63,0.00,,,0.00,91,Wunderground v.1.15,2013-08-01 17:41:00,
2013-08-01 13:46:00,79.2,65.5,29.96,SE,136,2.0,3.0,63,0.00,,,0.00,81,Wunderground v.1.15,2013-08-01 17:46:00,
2013-08-01 13:51:00,79.5,65.3,29.96,SSW,211,1.0,4.0,62,0.00,,,0.00,74,Wunderground v.1.15,2013-08-01 17:51:00,
2013-08-01 13:59:00,79.7,65.1,29.95,ESE,120,1.0,4.0,61,0.00,,,0.00,79,Wunderground v.1.15,2013-08-01 17:59:00,
2013-08-01 14:04:00,79.1,65.0,29.95,SE,131,1.0,5.0,62,0.00,,,0.00,134,Wunderground v.1.15,2013-08-01 18:04:00,
2013-08-01 14:10:00,79.1,65.0,29.95,SSW,207,1.0,1.0,62,0.00,,,0.00,223,Wunderground v.1.15,2013-08-01 18:10:00,
2013-08-01 14:15:00,79.1,65.4,29.95,SSW,209,1.0,2.0,63,0.00,,,0.00,93,Wunderground v.1.15,2013-08-01 18:15:00,
2013-08-01 14:20:00,79.1,65.0,29.95,SE,141,1.0,1.0,62,0.00,,,0.00,79,Wunderground v.1.15,2013-08-01 18:20:00,
2013-08-01 14:28:00,79.2,64.6,29.95,SE,134,2.0,5.0,61,0.00,,,0.00,76,Wunderground v.1.15,2013-08-01 18:28:00,
2013-08-01 14:34:00,78.6,63.6,29.94,SSE,159,2.0,3.0,60,0.00,,,0.00,72,Wunderground v.1.15,2013-08-01 18:34:00,
2013-08-01 14:39:00,78.6,61.1,29.94,South,174,1.0,1.0,55,0.00,,,0.00,76,Wunderground v.1.15,2013-08-01 18:39:00,
2013-08-01 14:44:00,78.7,62.7,29.94,SSE,148,2.0,4.0,58,0.00,,,0.00,74,Wunderground v.1.15,2013-08-01 18:44:00,
2013-08-01 14:50:00,78.7,63.6,29.94,South,188,1.0,3.0,60,0.00,,,0.00,76,Wunderground v.1.15,2013-08-01 18:50:00,
2013-08-01 14:57:00,78.9,63.4,29.94,SSW,192,1.0,3.0,59,0.00,,,0.00,93,Wunderground v.1.15,2013-08-01 18:57:00,
2013-08-01 15:03:00,79.3,64.7,29.94,SSW,211,1.0,2.0,61,0.00,,,0.00,97,Wunderground v.1.15,2013-08-01 19:03:00,
2013-08-01 15:13:00,79.2,65.5,29.94,SSE,167,1.0,2.0,63,0.00,,,0.00,95,Wunderground v.1.15,2013-08-01 19:13:00,
2013-08-01 15:18:00,78.8,65.6,29.94,South,171,1.0,2.0,64,0.00,,,0.00,134,Wunderground v.1.15,2013-08-01 19:18:00,
2013-08-01 15:26:00,79.6,65.4,29.94,ESE,121,1.0,2.0,62,0.00,,,0.00,288,Wunderground v.1.15,2013-08-01 19:26:00,
2013-08-01 15:32:00,79.4,65.2,29.94,West,267,2.0,2.0,62,0.00,,,0.00,199,Wunderground v.1.15,2013-08-01 19:32:00,
2013-08-01 15:38:00,79.5,65.3,29.94,SSW,194,1.0,2.0,62,0.00,,,0.00,489,Wunderground v.1.15,2013-08-01 19:38:00,
2013-08-01 15:43:00,79.3,65.1,29.94,WNW,300,1.0,3.0,62,0.00,,,0.00,686,Wunderground v.1.15,2013-08-01 19:43:00,
2013-08-01 15:48:00,79.0,63.9,29.94,SSE,154,2.0,3.0,60,0.00,,,0.00,675,Wunderground v.1.15,2013-08-01 19:48:00,
2013-08-01 15:54:00,79.1,64.5,29.94,SSE,164,2.0,2.0,61,0.00,,,0.00,707,Wunderground v.1.15,2013-08-01 19:54:00,
2013-08-01 16:00:00,79.2,64.1,29.94,South,180,1.0,1.0,60,0.00,,,0.00,754,Wunderground v.1.15,2013-08-01 20:00:00,
2013-08-01 16:05:00,79.3,64.7,29.94,SSW,197,1.0,3.0,61,0.00,,,0.00,754,Wunderground v.1.15,2013-08-01 20:05:00,
2013-08-01 16:13:00,79.1,65.0,29.94,SW,228,1.0,3.0,62,0.00,,,0.00,144,Wunderground v.1.15,2013-08-01 20:13:00,
2013-08-01 16:18:00,77.8,63.3,29.94,SSE,149,1.0,3.0,61,0.00,,,0.00,100,Wunderground v.1.15,2013-08-01 20:18:00,
2013-08-01 16:24:00,76.8,64.1,29.94,SSE,154,1.0,2.0,65,0.00,,,0.00,74,Wunderground v.1.15,2013-08-01 20:24:00,
2013-08-01 16:30:00,76.2,64.9,29.94,South,179,0.0,0.0,68,0.00,,,0.00,76,Wunderground v.1.15,2013-08-01 20:30:00,
2013-08-01 16:35:00,76.0,64.2,29.94,SSW,193,0.0,1.0,67,0.00,,,0.00,72,Wunderground v.1.15,2013-08-01 20:35:00,
2013-08-01 16:40:00,75.8,65.3,29.94,WNW,288,1.0,1.0,70,0.00,,,0.00,81,Wunderground v.1.15,2013-08-01 20:40:00,
2013-08-01 16:43:00,75.7,64.8,29.94,SW,225,1.0,1.0,69,0.00,,,0.00,77,Wunderground v.1.15,2013-08-01 20:43:00,
2013-08-01 16:49:00,75.6,65.1,29.94,South,175,1.0,1.0,70,0.00,,,0.00,74,Wunderground v.1.15,2013-08-01 20:49:00,
2013-08-01 16:54:00,75.6,65.9,29.94,South,188,1.0,1.0,72,0.00,,,0.00,77,Wunderground v.1.15,2013-08-01 20:54:00,
2013-08-01 17:00:00,75.4,66.5,29.94,SSE,150,1.0,1.0,74,0.00,,,0.00,72,Wunderground v.1.15,2013-08-01 21:00:00,
2013-08-01 17:06:00,75.2,67.1,29.94,South,189,1.0,1.0,76,0.00,,,0.00,56,Wunderground v.1.15,2013-08-01 21:06:00,
2013-08-01 17:11:00,75.1,67.4,29.94,SSE,148,0.0,0.0,77,0.00,,,0.00,51,Wunderground v.1.15,2013-08-01 21:11:00,
2013-08-01 17:16:00,74.9,67.6,29.94,South,173,0.0,0.0,78,0.00,,,0.00,37,Wunderground v.1.15,2013-08-01 21:16:00,
2013-08-01 17:22:00,74.8,68.2,29.94,WSW,251,0.0,0.0,80,0.00,,,0.00,30,Wunderground v.1.15,2013-08-01 21:22:00,
2013-08-01 17:29:00,74.5,67.6,29.94,South,175,0.0,2.0,79,0.00,,,0.00,33,Wunderground v.1.15,2013-08-01 21:29:00,
2013-08-01 17:34:00,73.8,68.0,29.94,SSE,168,0.0,3.0,82,0.00,,,0.00,30,Wunderground v.1.15,2013-08-01 21:34:00,
2013-08-01 17:40:00,73.1,68.0,29.94,South,178,0.0,0.0,84,0.00,,,0.00,26,Wunderground v.1.15,2013-08-01 21:40:00,
2013-08-01 17:45:00,72.6,68.2,29.94,NW,311,0.0,0.0,86,0.00,,,0.00,32,Wunderground v.1.15,2013-08-01 21:45:00,
2013-08-01 17:51:00,71.9,67.8,29.94,South,178,0.0,0.0,87,0.00,,,0.00,32,Wunderground v.1.15,2013-08-01 21:51:00,
2013-08-01 17:56:00,71.4,67.3,29.94,South,177,0.0,0.0,87,0.00,,,0.00,33,Wunderground v.1.15,2013-08-01 21:56:00,
2013-08-01 18:02:00,70.9,67.5,29.94,South,177,0.0,0.0,89,0.00,,,0.00,30,Wunderground v.1.15,2013-08-01 22:02:00,
2013-08-01 18:08:00,70.6,67.5,29.94,South,177,0.0,0.0,90,0.00,,,0.00,26,Wunderground v.1.15,2013-08-01 22:08:00,
2013-08-01 18:13:00,70.6,67.5,29.94,South,178,0.0,0.0,90,0.00,,,0.00,26,Wunderground v.1.15,2013-08-01 22:13:00,
2013-08-01 18:19:00,70.7,67.9,29.93,South,178,0.0,0.0,91,0.00,,,0.00,30,Wunderground v.1.15,2013-08-01 22:19:00,
2013-08-01 18:23:00,70.7,68.3,29.93,South,178,0.0,0.0,92,0.00,,,0.00,35,Wunderground v.1.15,2013-08-01 22:23:00,
2013-08-01 18:29:00,70.7,67.9,29.93,South,178,0.0,0.0,91,0.00,,,0.00,39,Wunderground v.1.15,2013-08-01 22:29:00,
2013-08-01 18:35:00,70.8,68.0,29.93,South,176,0.0,0.0,91,0.00,,,0.00,39,Wunderground v.1.15,2013-08-01 22:35:00,
2013-08-01 18:43:00,70.9,67.8,29.93,South,176,0.0,0.0,90,0.00,,,0.00,26,Wunderground v.1.15,2013-08-01 22:43:00,
2013-08-01 18:49:00,70.9,67.5,29.93,South,176,0.0,0.0,89,0.00,,,0.00,19,Wunderground v.1.15,2013-08-01 22:49:00,
2013-08-01 18:55:00,70.8,67.7,29.93,South,176,0.0,0.0,90,0.00,,,0.00,16,Wunderground v.1.15,2013-08-01 22:55:00,
2013-08-01 19:00:00,70.8,67.7,29.93,South,176,0.0,0.0,90,0.00,,,0.00,12,Wunderground v.1.15,2013-08-01 23:00:00,
2013-08-01 19:05:00,70.8,67.7,29.93,South,176,0.0,0.0,90,0.00,,,0.00,11,Wunderground v.1.15,2013-08-01 23:05:00,
2013-08-01 19:10:00,70.8,67.4,29.93,South,176,0.0,0.0,89,0.00,,,0.00,11,Wunderground v.1.15,2013-08-01 23:10:00,
2013-08-01 19:16:00,70.7,67.6,29.93,South,176,0.0,0.0,90,0.00,,,0.00,7,Wunderground v.1.15,2013-08-01 23:16:00,
2013-08-01 19:21:00,70.6,67.5,29.94,South,176,0.0,0.0,90,0.00,,,0.00,0,Wunderground v.1.15,2013-08-01 23:21:00,
2013-08-01 19:27:00,70.4,67.3,29.94,South,176,0.0,0.0,90,0.00,,,0.00,0,Wunderground v.1.15,2013-08-01 23:27:00,
2013-08-01 19:33:00,70.2,67.1,29.94,South,176,0.0,0.0,90,0.00,,,0.00,0,Wunderground v.1.15,2013-08-01 23:33:00,
2013-08-01 19:39:00,70.1,66.7,29.94,South,176,0.0,0.0,89,0.00,,,0.00,0,Wunderground v.1.15,2013-08-01 23:39:00,
2013-08-01 19:44:00,70.1,67.0,29.94,South,176,0.0,0.0,90,0.00,,,0.00,0,Wunderground v.1.15,2013-08-01 23:44:00,
2013-08-01 19:50:00,69.9,66.8,29.94,South,176,0.0,0.0,90,0.00,,,0.00,0,Wunderground v.1.15,2013-08-01 23:50:00,
2013-08-01 19:55:00,69.9,66.8,29.93,South,176,0.0,0.0,90,0.00,,,0.00,0,Wunderground v.1.15,2013-08-01 23:55:00,
2013-08-01 20:02:00,69.9,66.8,29.93,South,176,0.0,0.0,90,0.00,,,0.00,0,Wunderground v.1.15,2013-08-02 00:02:00,
2013-08-01 20:08:00,69.9,66.8,29.93,West,271,0.0,0.0,90,0.00,,,0.00,0,Wunderground v.1.15,2013-08-02 00:08:00,
2013-08-01 20:13:00,70.1,67.0,29.93,West,271,0.0,0.0,90,0.00,,,0.00,0,Wunderground v.1.15,2013-08-02 00:13:00,
2013-08-01 20:19:00,70.3,67.2,29.93,West,271,0.0,0.0,90,0.00,,,0.00,0,Wunderground v.1.15,2013-08-02 00:19:00,
2013-08-01 20:24:00,70.4,67.3,29.93,West,271,0.0,0.0,90,0.00,,,0.00,0,Wunderground v.1.15,2013-08-02 00:24:00,
2013-08-01 20:29:00,70.4,67.0,29.93,West,271,0.0,0.0,89,0.00,,,0.00,0,Wunderground v.1.15,2013-08-02 00:29:00,
2013-08-01 20:35:00,70.4,67.0,29.93,West,271,0.0,0.0,89,0.00,,,0.00,0,Wunderground v.1.15,2013-08-02 00:35:00,
2013-08-01 20:43:00,70.3,66.9,29.93,West,271,0.0,0.0,89,0.00,,,0.00,0,Wunderground v.1.15,2013-08-02 00:43:00,
2013-08-01 20:48:00,70.3,66.9,29.93,West,271,0.0,0.0,89,0.00,,,0.00,0,Wunderground v.1.15,2013-08-02 00:48:00,
2013-08-01 20:53:00,70.3,67.2,29.94,West,271,0.0,0.0,90,0.00,,,0.00,0,Wunderground v.1.15,2013-08-02 00:53:00,
2013-08-01 20:58:00,70.3,67.2,29.94,West,271,0.0,0.0,90,0.00,,,0.00,0,Wunderground v.1.15,2013-08-02 00:58:00,
2013-08-01 21:03:00,70.4,67.3,29.94,West,271,0.0,0.0,90,0.00,,,0.00,0,Wunderground v.1.15,2013-08-02 01:03:00,
2013-08-01 21:08:00,70.3,67.2,29.93,West,271,0.0,0.0,90,0.00,,,0.00,0,Wunderground v.1.15,2013-08-02 01:08:00,
2013-08-01 21:15:00,70.4,67.3,29.93,West,271,0.0,0.0,90,0.00,,,0.00,0,Wunderground v.1.15,2013-08-02 01:15:00,
2013-08-01 21:21:00,70.5,67.4,29.93,SSW,197,0.0,0.0,90,0.00,,,0.00,0,Wunderground v.1.15,2013-08-02 01:21:00,
2013-08-01 21:26:00,70.5,67.4,29.93,SSW,193,0.0,1.0,90,0.00,,,0.00,0,Wunderground v.1.15,2013-08-02 01:26:00,
2013-08-01 21:33:00,70.4,67.6,29.93,SSW,193,0.0,1.0,91,0.00,,,0.00,0,Wunderground v.1.15,2013-08-02 01:33:00,
2013-08-01 21:38:00,70.3,67.5,29.93,SSW,194,0.0,1.0,91,0.00,,,0.00,0,Wunderground v.1.15,2013-08-02 01:38:00,
2013-08-01 21:43:00,70.0,66.6,29.93,SSE,161,0.0,0.0,89,0.00,,,0.00,0,Wunderground v.1.15,2013-08-02 01:43:00,
2013-08-01 21:48:00,69.6,66.5,29.93,South,169,0.0,1.0,90,0.00,,,0.00,0,Wunderground v.1.15,2013-08-02 01:48:00,
2013-08-01 21:54:00,69.3,66.6,29.93,South,169,0.0,0.0,91,0.00,,,0.00,0,Wunderground v.1.15,2013-08-02 01:54:00,
2013-08-01 22:00:00,68.9,66.2,29.93,South,169,0.0,0.0,91,0.00,,,0.00,0,Wunderground v.1.15,2013-08-02 02:00:00,
2013-08-01 22:05:00,68.4,65.7,29.93,NNW,334,0.0,2.0,91,0.00,,,0.00,0,Wunderground v.1.15,2013-08-02 02:05:00,
2013-08-01 22:10:00,67.8,64.4,29.93,SW,225,0.0,0.0,89,0.00,,,0.00,0,Wunderground v.1.15,2013-08-02 02:10:00,
2013-08-01 22:15:00,67.1,63.7,29.93,SW,225,0.0,0.0,89,0.00,,,0.00,0,Wunderground v.1.15,2013-08-02 02:15:00,
2013-08-01 22:21:00,66.6,63.6,29.93,NNW,335,0.0,0.0,90,0.00,,,0.00,0,Wunderground v.1.15,2013-08-02 02:21:00,
2013-08-01 22:27:00,66.0,63.6,29.93,NW,306,0.0,1.0,92,0.00,,,0.00,0,Wunderground v.1.15,2013-08-02 02:27:00,
2013-08-01 22:31:00,65.7,63.6,29.93,WNW,300,0.0,0.0,93,0.00,,,0.00,0,Wunderground v.1.15,2013-08-02 02:31:00,
2013-08-01 22:37:00,65.3,63.2,29.93,NW,309,0.0,1.0,93,0.00,,,0.00,0,Wunderground v.1.15,2013-08-02 02:37:00,
2013-08-01 22:44:00,64.9,63.1,29.93,NW,307,0.0,0.0,94,0.00,,,0.00,0,Wunderground v.1.15,2013-08-02 02:44:00,
2013-08-01 22:51:00,64.6,62.8,29.93,NW,307,0.0,0.0,94,0.00,,,0.00,0,Wunderground v.1.15,2013-08-02 02:51:00,
2013-08-01 22:56:00,64.4,62.6,29.92,NW,308,0.0,0.0,94,0.00,,,0.00,0,Wunderground v.1.15,2013-08-02 02:56:00,
2013-08-01 23:03:00,64.2,62.7,29.92,NW,308,0.0,0.0,95,0.00,,,0.00,0,Wunderground v.1.15,2013-08-02 03:03:00,
2013-08-01 23:08:00,64.0,62.5,29.92,NW,307,0.0,0.0,95,0.00,,,0.00,0,Wunderground v.1.15,2013-08-02 03:08:00,
2013-08-01 23:13:00,63.9,62.4,29.92,NW,307,0.0,0.0,95,0.00,,,0.00,0,Wunderground v.1.15,2013-08-02 03:13:00,
2013-08-01 23:18:00,63.8,62.6,29.92,NW,307,0.0,0.0,96,0.00,,,0.01,0,Wunderground v.1.15,2013-08-02 03:18:00,
2013-08-01 23:24:00,63.6,62.4,29.92,NW,307,0.0,0.0,96,0.00,,,0.01,0,Wunderground v.1.15,2013-08-02 03:24:00,
2013-08-01 23:30:00,63.5,62.3,29.92,NW,307,0.0,0.0,96,0.05,,,0.02,0,Wunderground v.1.15,2013-08-02 03:30:00,
2013-08-01 23:36:00,63.5,62.3,29.92,NW,307,0.0,0.0,96,0.05,,,0.02,0,Wunderground v.1.15,2013-08-02 03:36:00,
2013-08-01 23:41:00,63.4,62.2,29.92,NW,307,0.0,0.0,96,0.05,,,0.02,0,Wunderground v.1.15,2013-08-02 03:41:00,
2013-08-01 23:48:00,63.3,62.1,29.92,NW,307,0.0,0.0,96,0.00,,,0.02,0,Wunderground v.1.15,2013-08-02 03:48:00,
2013-08-01 23:53:00,63.3,62.1,29.91,NW,307,0.0,0.0,96,0.00,,,0.02,0,Wunderground v.1.15,2013-08-02 03:53:00,
2013-08-01 23:58:00,63.4,62.5,29.91,NW,307,0.0,0.0,97,0.00,,,0.02,0,Wunderground v.1.15,2013-08-02 03:58:00,